createdAt,value
2022-12-03T00:01:20.405Z,45.95
2022-12-03T00:04:22.918Z,47.35
2022-12-03T00:07:25.223Z,46.92
2022-12-03T00:10:27.830Z,44.67
2022-12-03T00:13:30.134Z,44.37
2022-12-03T00:16:32.710Z,48.40
2022-12-03T00:19:34.977Z,44.90
2022-12-03T00:22:39.606Z,45.72
2022-12-03T00:25:41.829Z,40.95
2022-12-03T00:28:45.549Z,42.07
2022-12-03T00:31:48.807Z,42.20
2022-12-03T00:34:51.691Z,43.75
2022-12-03T00:37:54.925Z,43.17
2022-12-03T00:40:57.644Z,48.03
2022-12-03T00:43:59.864Z,46.07
2022-12-03T00:47:02.606Z,45.90
2022-12-03T00:50:06.170Z,42.25
2022-12-03T00:53:08.721Z,47.42
2022-12-03T00:56:11.108Z,42.10
2022-12-03T00:59:13.734Z,45.23
2022-12-03T01:02:16.254Z,47.92
2022-12-03T01:05:20.023Z,47.90
2022-12-03T01:08:22.344Z,44.55
2022-12-03T01:11:41.231Z,44.03
2022-12-03T01:14:44.589Z,41.07
2022-12-03T01:17:47.150Z,41.03
2022-12-03T01:20:49.440Z,49.75
2022-12-03T01:23:52.040Z,42.85
2022-12-03T01:26:56.041Z,47.88
2022-12-03T01:29:58.618Z,42.63
2022-12-03T01:33:00.851Z,49.58
2022-12-03T01:36:03.560Z,46.67
2022-12-03T01:39:05.856Z,47.60
2022-12-03T01:42:11.900Z,43.85
2022-12-03T01:45:22.695Z,48.10
2022-12-03T01:48:25.325Z,45.12
2022-12-03T01:51:27.606Z,47.92
2022-12-03T01:54:42.272Z,44.55
2022-12-03T01:57:51.559Z,47.62
2022-12-03T02:00:54.688Z,47.53
2022-12-03T02:03:57.874Z,45.00
2022-12-03T02:07:20.583Z,45.75
2022-12-03T02:10:30.160Z,45.35
2022-12-03T02:13:33.136Z,47.17
2022-12-03T02:16:37.603Z,44.83
2022-12-03T02:19:40.315Z,45.97
2022-12-03T02:22:57.951Z,44.90
2022-12-03T02:26:00.715Z,48.25
2022-12-03T02:29:03.938Z,49.78
2022-12-03T02:32:06.595Z,48.07
2022-12-03T02:35:21.318Z,48.03
2022-12-03T02:38:27.092Z,48.05
2022-12-03T02:41:48.267Z,47.97
2022-12-03T02:44:51.811Z,48.35
2022-12-03T02:48:02.648Z,45.73
2022-12-03T02:51:09.086Z,42.25
2022-12-03T02:54:11.470Z,43.85
2022-12-03T02:57:16.336Z,52.50
2022-12-03T03:00:20.182Z,46.95
2022-12-03T03:03:24.658Z,48.33
2022-12-03T03:06:27.089Z,43.47
2022-12-03T03:09:29.798Z,44.20
2022-12-03T03:12:36.182Z,44.90
2022-12-03T03:15:42.503Z,50.40
2022-12-03T03:18:44.969Z,41.73
2022-12-03T03:21:47.569Z,39.60
2022-12-03T03:24:49.835Z,45.70
2022-12-03T03:27:52.411Z,42.78
2022-12-03T03:30:55.396Z,44.33
2022-12-03T03:33:58.185Z,41.27
2022-12-03T03:37:00.476Z,43.42
2022-12-03T03:40:03.611Z,46.45
2022-12-03T03:43:06.799Z,40.28
2022-12-03T03:46:10.663Z,51.00
2022-12-03T03:49:14.054Z,44.40
2022-12-03T03:52:18.492Z,43.95
2022-12-03T03:55:20.936Z,45.38
2022-12-03T03:58:23.508Z,42.78
2022-12-03T04:01:26.947Z,43.10
2022-12-03T04:04:33.338Z,44.57
2022-12-03T04:07:35.889Z,40.15
2022-12-03T04:10:57.113Z,46.65
2022-12-03T04:13:59.343Z,45.90
2022-12-03T04:17:01.962Z,45.22
2022-12-03T04:20:04.843Z,42.87
2022-12-03T04:23:08.401Z,39.97
2022-12-03T04:26:29.258Z,45.60
2022-12-03T04:29:31.798Z,47.20
2022-12-03T04:32:52.498Z,45.05
2022-12-03T04:35:55.160Z,40.57
2022-12-03T04:38:57.522Z,44.92
2022-12-03T04:42:00.139Z,45.35
2022-12-03T04:45:02.427Z,45.15
2022-12-03T04:48:05.174Z,46.83
2022-12-03T04:51:07.422Z,43.67
2022-12-03T04:54:09.977Z,46.05
2022-12-03T04:57:12.754Z,47.28
2022-12-03T05:00:15.908Z,51.95
2022-12-03T05:03:18.254Z,54.13
2022-12-03T05:06:20.796Z,50.57
2022-12-03T05:09:23.161Z,49.85
2022-12-03T05:12:25.680Z,48.63
2022-12-03T05:15:27.913Z,50.03
2022-12-03T05:18:30.454Z,49.38
2022-12-03T05:21:33.052Z,55.50
2022-12-03T05:24:35.579Z,51.35
2022-12-03T05:27:37.850Z,47.72
2022-12-03T05:30:40.548Z,46.95
2022-12-03T05:33:44.522Z,46.20
2022-12-03T05:36:47.307Z,47.37
2022-12-03T05:39:49.573Z,44.63
2022-12-03T05:42:55.002Z,46.30
2022-12-03T05:45:57.313Z,48.30
2022-12-03T05:49:05.359Z,48.38
2022-12-03T05:52:07.594Z,45.60
2022-12-03T05:55:11.569Z,52.08
2022-12-03T05:58:14.004Z,46.33
2022-12-03T06:01:16.647Z,48.80
2022-12-03T06:04:19.137Z,42.92
2022-12-03T06:07:21.400Z,44.67
2022-12-03T06:10:25.061Z,45.58
2022-12-03T06:13:27.326Z,51.22
2022-12-03T06:16:29.936Z,45.33
2022-12-03T06:19:33.018Z,49.97
2022-12-03T06:22:35.542Z,44.37
2022-12-03T06:25:37.832Z,43.75
2022-12-03T06:28:45.587Z,42.85
2022-12-03T06:31:47.835Z,44.60
2022-12-03T06:34:53.363Z,41.47
2022-12-03T06:37:55.912Z,53.80
2022-12-03T06:40:58.442Z,47.62
2022-12-03T06:44:00.724Z,47.88
2022-12-03T06:47:03.331Z,50.20
2022-12-03T06:50:07.649Z,51.15
2022-12-03T06:53:10.165Z,51.67
2022-12-03T06:56:12.421Z,46.70
2022-12-03T06:59:14.957Z,53.83
2022-12-03T07:02:17.233Z,48.78
2022-12-03T07:05:20.038Z,51.17
2022-12-03T07:08:22.258Z,47.73
2022-12-03T07:11:39.942Z,48.67
2022-12-03T07:14:42.226Z,47.03
2022-12-03T07:17:44.757Z,43.80
2022-12-03T07:20:47.234Z,51.20
2022-12-03T07:23:49.842Z,53.90
2022-12-03T07:26:52.068Z,49.58
2022-12-03T07:29:54.623Z,52.58
2022-12-03T07:32:56.921Z,52.55
2022-12-03T07:35:59.461Z,42.67
2022-12-03T07:39:01.679Z,53.70
2022-12-03T07:42:04.321Z,51.08
2022-12-03T07:45:07.235Z,47.65
2022-12-03T07:48:09.836Z,47.67
2022-12-03T07:51:15.293Z,49.80
2022-12-03T07:54:18.155Z,53.13
2022-12-03T07:57:20.878Z,43.00
2022-12-03T08:00:23.570Z,44.40
2022-12-03T08:03:26.244Z,46.03
2022-12-03T08:06:28.508Z,53.55
2022-12-03T08:09:31.556Z,55.13
2022-12-03T08:12:40.611Z,55.17
2022-12-03T08:15:45.196Z,50.55
2022-12-03T08:18:49.343Z,49.20
2022-12-03T08:21:55.281Z,48.35
2022-12-03T08:25:02.108Z,48.43
2022-12-03T08:28:22.982Z,51.90
2022-12-03T08:31:32.866Z,52.47
2022-12-03T08:34:40.713Z,54.78
2022-12-03T08:37:43.042Z,46.90
2022-12-03T08:40:48.155Z,48.73
2022-12-03T08:43:50.379Z,51.70
2022-12-03T08:47:26.352Z,48.35
2022-12-03T08:50:40.186Z,50.72
2022-12-03T08:54:01.553Z,52.72
2022-12-03T08:57:28.991Z,48.83
2022-12-03T09:00:32.466Z,54.00
2022-12-03T09:03:34.946Z,58.80
2022-12-03T09:06:37.485Z,50.50
2022-12-03T09:09:40.258Z,46.33
2022-12-03T09:12:42.889Z,51.70
2022-12-03T09:15:45.166Z,55.97
2022-12-03T09:18:47.735Z,50.55
2022-12-03T09:21:50.172Z,52.13
2022-12-03T09:24:52.987Z,53.28
2022-12-03T09:27:55.426Z,51.23
2022-12-03T09:30:57.886Z,45.05
2022-12-03T09:34:02.540Z,44.15
2022-12-03T09:37:05.173Z,46.03
2022-12-03T09:40:08.806Z,42.83
2022-12-03T09:43:12.527Z,43.27
2022-12-03T09:46:15.037Z,41.85
2022-12-03T09:49:19.903Z,42.40
2022-12-03T09:52:28.774Z,36.85
2022-12-03T09:55:32.239Z,38.63
2022-12-03T09:58:35.040Z,39.07
2022-12-03T10:01:37.823Z,40.78
2022-12-03T10:04:40.493Z,39.58
2022-12-03T10:07:42.874Z,41.30
2022-12-03T10:10:45.549Z,42.38
2022-12-03T10:13:48.299Z,40.73
2022-12-03T10:16:51.152Z,39.33
2022-12-03T10:19:53.809Z,37.15
2022-12-03T10:22:56.534Z,37.33
2022-12-03T10:26:02.978Z,35.42
2022-12-03T10:29:13.153Z,41.87
2022-12-03T10:32:15.453Z,36.72
2022-12-03T10:35:21.745Z,36.10
2022-12-03T10:38:24.091Z,38.45
2022-12-03T10:41:29.199Z,34.33
2022-12-03T10:44:31.562Z,36.23
2022-12-03T10:47:34.240Z,33.70
2022-12-03T10:50:37.708Z,42.30
2022-12-03T10:53:41.132Z,37.35
2022-12-03T10:56:44.056Z,33.58
2022-12-03T10:59:46.600Z,33.20
2022-12-03T11:02:54.811Z,31.10
2022-12-03T11:06:00.454Z,30.33
2022-12-03T11:09:08.808Z,42.45
2022-12-03T11:12:17.572Z,37.50
2022-12-03T11:15:44.411Z,35.87
2022-12-03T11:18:49.731Z,35.30
2022-12-03T11:22:05.400Z,38.53
2022-12-03T11:25:44.701Z,33.17
2022-12-03T11:28:46.994Z,38.33
2022-12-03T11:31:49.684Z,31.57
2022-12-03T11:34:52.350Z,29.80
2022-12-03T11:37:55.207Z,29.92
2022-12-03T11:41:34.225Z,32.47
2022-12-03T11:44:36.921Z,29.98
2022-12-03T11:47:59.377Z,26.00
2022-12-03T11:51:02.156Z,32.60
2022-12-03T11:54:04.678Z,26.85
2022-12-03T11:57:26.435Z,25.92
2022-12-03T12:00:29.280Z,24.75
2022-12-03T12:03:41.831Z,28.43
2022-12-03T12:06:48.689Z,28.17
2022-12-03T12:09:55.882Z,25.92
2022-12-03T12:12:58.635Z,25.52
2022-12-03T12:16:04.221Z,28.75
2022-12-03T12:19:33.009Z,26.53
2022-12-03T12:22:35.653Z,24.08
2022-12-03T12:25:40.364Z,22.87
2022-12-03T12:28:42.959Z,26.33
2022-12-03T12:31:49.515Z,30.12
2022-12-03T12:34:59.787Z,26.07
2022-12-03T12:38:08.693Z,22.42
2022-12-03T12:41:11.487Z,24.55
2022-12-03T12:44:14.431Z,28.33
2022-12-03T12:47:17.030Z,23.95
2022-12-03T12:50:20.120Z,25.93
2022-12-03T12:53:24.840Z,27.23
2022-12-03T12:56:32.627Z,25.67
2022-12-03T12:59:35.523Z,26.10
2022-12-03T13:03:00.318Z,25.00
2022-12-03T13:06:03.688Z,24.60
2022-12-03T13:09:17.909Z,27.95
2022-12-03T13:12:23.282Z,28.35
2022-12-03T13:15:38.933Z,29.05
2022-12-03T13:18:44.995Z,30.02
2022-12-03T13:21:47.252Z,33.33
2022-12-03T13:24:51.981Z,28.00
2022-12-03T13:27:54.216Z,28.92
2022-12-03T13:31:12.747Z,28.60
2022-12-03T13:34:20.802Z,27.17
2022-12-03T13:37:26.893Z,29.57
2022-12-03T13:40:31.640Z,28.92
2022-12-03T13:43:38.752Z,27.90
2022-12-03T13:46:46.693Z,32.20
2022-12-03T13:50:00.826Z,25.48
2022-12-03T13:53:23.324Z,29.20
2022-12-03T13:56:25.874Z,29.85
2022-12-03T13:59:28.170Z,29.23
2022-12-03T14:02:30.679Z,28.50
2022-12-03T14:05:33.368Z,27.67
2022-12-03T14:08:35.650Z,28.93
2022-12-03T14:11:56.920Z,27.77
2022-12-03T14:15:04.069Z,32.22
2022-12-03T14:18:06.723Z,26.10
2022-12-03T14:21:09.014Z,31.95
2022-12-03T14:24:11.641Z,28.77
2022-12-03T14:27:13.922Z,27.70
2022-12-03T14:30:16.712Z,26.52
2022-12-03T14:33:18.937Z,27.30
2022-12-03T14:36:21.574Z,30.17
2022-12-03T14:39:23.984Z,28.10
2022-12-03T14:42:29.460Z,29.05
2022-12-03T14:45:32.008Z,30.65
2022-12-03T14:48:34.590Z,29.40
2022-12-03T14:51:36.845Z,30.40
2022-12-03T14:54:42.638Z,28.83
2022-12-03T14:57:45.355Z,30.92
2022-12-03T15:00:47.979Z,28.50
2022-12-03T15:03:50.256Z,28.05
2022-12-03T15:06:52.809Z,29.12
2022-12-03T15:09:55.441Z,29.20
2022-12-03T15:12:58.271Z,28.17
2022-12-03T15:16:00.550Z,29.50
2022-12-03T15:19:03.166Z,28.25
2022-12-03T15:22:05.419Z,27.67
2022-12-03T15:25:08.482Z,28.13
2022-12-03T15:28:10.810Z,29.65
2022-12-03T15:31:13.605Z,30.62
2022-12-03T15:34:21.808Z,33.92
2022-12-03T15:37:27.690Z,33.22
2022-12-03T15:40:29.900Z,29.57
2022-12-03T15:43:32.440Z,30.73
2022-12-03T15:46:34.827Z,28.33
2022-12-03T15:49:37.410Z,32.30
2022-12-03T15:52:40.057Z,32.92
2022-12-03T15:55:42.626Z,30.77
2022-12-03T15:58:44.923Z,28.87
2022-12-03T16:01:47.542Z,30.17
2022-12-03T16:04:50.143Z,33.25
2022-12-03T16:07:52.662Z,34.35
2022-12-03T16:10:55.353Z,33.87
2022-12-03T16:13:57.637Z,35.13
2022-12-03T16:17:00.246Z,32.30
2022-12-03T16:20:02.826Z,30.58
2022-12-03T16:23:05.594Z,32.72
2022-12-03T16:26:07.855Z,35.40
2022-12-03T16:29:10.436Z,34.58
2022-12-03T16:32:12.917Z,31.08
2022-12-03T16:35:15.598Z,33.17
2022-12-03T16:38:17.885Z,31.98
2022-12-03T16:41:22.393Z,34.83
2022-12-03T16:44:32.706Z,36.38
2022-12-03T16:47:35.496Z,31.87
2022-12-03T16:50:38.134Z,37.63
2022-12-03T16:53:40.814Z,33.05
2022-12-03T16:56:43.062Z,36.53
2022-12-03T16:59:45.658Z,36.53
2022-12-03T17:02:48.675Z,36.58
2022-12-03T17:05:51.471Z,35.45
2022-12-03T17:08:53.781Z,35.35
2022-12-03T17:11:56.318Z,36.67
2022-12-03T17:14:58.596Z,38.38
2022-12-03T17:18:03.488Z,37.13
2022-12-03T17:21:06.648Z,39.83
2022-12-03T17:24:09.326Z,35.55
2022-12-03T17:27:12.844Z,34.57
2022-12-03T17:30:15.792Z,39.40
2022-12-03T17:33:18.019Z,34.28
2022-12-03T17:36:20.536Z,33.22
2022-12-03T17:39:22.974Z,37.08
2022-12-03T17:42:25.908Z,37.00
2022-12-03T17:45:28.259Z,40.60
2022-12-03T17:48:31.407Z,44.38
2022-12-03T17:51:33.903Z,41.60
2022-12-03T17:55:01.753Z,41.55
2022-12-03T17:57:59.831Z,40.83
2022-12-03T18:01:03.371Z,38.90
2022-12-03T18:04:06.123Z,45.15
2022-12-03T18:07:08.774Z,41.00
2022-12-03T18:10:11.518Z,46.42
2022-12-03T18:13:14.083Z,41.33
2022-12-03T18:16:16.842Z,44.85
2022-12-03T18:19:19.195Z,44.20
2022-12-03T18:22:21.843Z,43.25
2022-12-03T18:25:25.923Z,44.72
2022-12-03T18:28:30.612Z,46.30
2022-12-03T18:31:33.074Z,43.87
2022-12-03T18:34:35.584Z,47.20
2022-12-03T18:37:38.487Z,43.80
2022-12-03T18:40:43.970Z,47.78
2022-12-03T18:43:46.604Z,45.70
2022-12-03T18:46:53.930Z,45.28
2022-12-03T18:49:57.515Z,49.53
2022-12-03T18:53:00.407Z,50.40
2022-12-03T18:56:03.135Z,45.42
2022-12-03T18:59:07.398Z,49.97
2022-12-03T19:02:46.099Z,44.03
2022-12-03T19:05:42.174Z,43.67
2022-12-03T19:08:45.137Z,46.65
2022-12-03T19:11:48.011Z,43.58
2022-12-03T19:14:51.107Z,43.10
2022-12-03T19:17:53.748Z,42.58
2022-12-03T19:20:56.100Z,48.22
2022-12-03T19:24:23.298Z,45.03
2022-12-03T19:27:21.218Z,40.03
2022-12-03T19:30:23.960Z,41.83
2022-12-03T19:33:28.674Z,44.65
2022-12-03T19:36:31.736Z,42.22
2022-12-03T19:39:34.093Z,47.30
2022-12-03T19:42:36.658Z,42.65
2022-12-03T19:45:38.976Z,43.77
2022-12-03T19:48:41.763Z,46.13
2022-12-03T19:51:44.341Z,44.33
2022-12-03T19:54:46.921Z,44.78
2022-12-03T19:57:49.215Z,45.47
2022-12-03T20:00:51.755Z,46.20
2022-12-03T20:03:57.727Z,44.70
2022-12-03T20:06:59.997Z,45.12
2022-12-03T20:10:02.747Z,43.05
2022-12-03T20:13:05.398Z,41.37
2022-12-03T20:16:12.570Z,41.43
2022-12-03T20:19:17.079Z,39.10
2022-12-03T20:22:19.635Z,45.97
2022-12-03T20:25:21.916Z,40.38
2022-12-03T20:28:24.615Z,40.65
2022-12-03T20:31:29.594Z,46.67
2022-12-03T20:34:34.130Z,42.80
2022-12-03T20:37:36.415Z,45.10
2022-12-03T20:40:39.119Z,39.75
2022-12-03T20:43:42.311Z,45.55
2022-12-03T20:46:44.932Z,41.70
2022-12-03T20:49:47.251Z,41.42
2022-12-03T20:53:16.245Z,44.30
2022-12-03T20:56:18.609Z,41.70
2022-12-03T20:59:21.326Z,44.53
2022-12-03T21:02:23.692Z,42.90
2022-12-03T21:05:27.040Z,42.22
2022-12-03T21:08:41.115Z,44.45
2022-12-03T21:11:44.452Z,47.13
2022-12-03T21:14:46.839Z,44.83
2022-12-03T21:17:49.471Z,40.90
2022-12-03T21:20:51.762Z,39.60
2022-12-03T21:23:54.810Z,39.28
2022-12-03T21:26:57.985Z,44.85
2022-12-03T21:30:00.562Z,50.75
2022-12-03T21:33:02.807Z,48.77
2022-12-03T21:36:06.861Z,43.40
2022-12-03T21:39:09.198Z,46.55
2022-12-03T21:42:19.393Z,47.17
2022-12-03T21:45:33.955Z,45.75
2022-12-03T21:48:36.752Z,45.17
2022-12-03T21:51:39.018Z,45.75
2022-12-03T21:54:41.665Z,46.78
2022-12-03T21:57:43.970Z,40.92
2022-12-03T22:00:46.545Z,45.05
2022-12-03T22:03:50.195Z,47.43
2022-12-03T22:06:52.481Z,50.90
2022-12-03T22:09:55.287Z,48.20
2022-12-03T22:12:57.796Z,47.25
2022-12-03T22:16:04.565Z,45.72
2022-12-03T22:19:06.803Z,48.60
2022-12-03T22:22:09.378Z,45.35
2022-12-03T22:25:11.777Z,44.05
2022-12-03T22:28:14.290Z,48.45
2022-12-03T22:31:18.399Z,47.53
2022-12-03T22:34:21.058Z,48.30
2022-12-03T22:37:23.964Z,48.72
2022-12-03T22:40:26.472Z,46.22
2022-12-03T22:43:28.818Z,46.90
2022-12-03T22:46:31.503Z,44.28
2022-12-03T22:49:33.826Z,46.47
2022-12-03T22:52:36.348Z,47.58
2022-12-03T22:55:39.112Z,44.20
2022-12-03T22:58:41.764Z,47.13
2022-12-03T23:01:44.414Z,46.60
2022-12-03T23:04:47.015Z,47.43
2022-12-03T23:07:50.673Z,45.63
2022-12-03T23:10:53.283Z,42.15
2022-12-03T23:13:55.575Z,47.42
2022-12-03T23:16:58.063Z,48.38
2022-12-03T23:20:00.339Z,45.77
2022-12-03T23:23:02.865Z,45.92
2022-12-03T23:26:07.847Z,44.85
2022-12-03T23:29:10.457Z,45.50
2022-12-03T23:32:12.738Z,48.40
2022-12-03T23:35:15.240Z,46.83
2022-12-03T23:38:17.457Z,46.08
2022-12-03T23:41:22.245Z,46.95
2022-12-03T23:44:24.995Z,46.55
2022-12-03T23:47:27.967Z,43.92
2022-12-03T23:50:31.032Z,43.70
2022-12-03T23:53:35.142Z,43.75
2022-12-03T23:56:37.581Z,45.40
2022-12-03T23:59:42.125Z,41.95
